createdAt,value
2023-03-27T00:01:30.903Z,3.58
2023-03-27T00:04:00.622Z,4.25
2023-03-27T00:06:28.729Z,5.65
2023-03-27T00:08:56.608Z,8.50
2023-03-27T00:11:25.243Z,13.00
2023-03-27T00:13:56.048Z,10.75
2023-03-27T00:16:27.115Z,12.45
2023-03-27T00:18:55.805Z,12.63
2023-03-27T00:21:23.721Z,14.20
2023-03-27T00:23:52.470Z,15.48
2023-03-27T00:26:22.392Z,16.92
2023-03-27T00:28:50.789Z,18.80
2023-03-27T00:31:18.978Z,19.20
2023-03-27T00:33:47.100Z,19.88
2023-03-27T00:36:15.610Z,20.60
2023-03-27T00:38:44.097Z,20.23
2023-03-27T00:41:12.988Z,18.42
2023-03-27T00:43:44.220Z,19.13
2023-03-27T00:46:15.769Z,18.02
2023-03-27T00:48:47.412Z,18.92
2023-03-27T00:51:16.917Z,16.52
2023-03-27T00:53:46.450Z,17.33
2023-03-27T00:56:16.745Z,17.25
2023-03-27T00:58:55.945Z,17.70
2023-03-27T01:01:28.348Z,16.35
2023-03-27T01:04:00.890Z,17.50
2023-03-27T01:06:30.319Z,16.33
2023-03-27T01:08:59.757Z,15.80
2023-03-27T01:11:36.785Z,16.13
2023-03-27T01:14:10.647Z,15.82
2023-03-27T01:16:56.520Z,15.65
2023-03-27T01:19:57.214Z,15.18
2023-03-27T01:22:57.808Z,14.88
2023-03-27T01:25:45.559Z,14.93
2023-03-27T01:28:19.339Z,14.27
2023-03-27T01:31:07.481Z,14.32
2023-03-27T01:33:54.521Z,14.13
2023-03-27T01:36:45.486Z,15.85
2023-03-27T01:39:16.378Z,14.40
2023-03-27T01:42:10.809Z,13.43
2023-03-27T01:45:02.589Z,14.57
2023-03-27T01:47:43.545Z,13.70
2023-03-27T01:50:27.426Z,15.07
2023-03-27T01:53:04.239Z,15.02
2023-03-27T01:55:36.692Z,15.32
2023-03-27T01:58:14.148Z,14.00
2023-03-27T02:00:51.974Z,15.18
2023-03-27T02:03:34.986Z,14.77
2023-03-27T02:06:17.193Z,16.48
2023-03-27T02:08:53.685Z,17.00
2023-03-27T02:11:26.947Z,15.10
2023-03-27T02:14:00.667Z,16.92
2023-03-27T02:16:34.039Z,16.33
2023-03-27T02:19:12.826Z,17.35
2023-03-27T02:21:40.713Z,17.55
2023-03-27T02:24:09.176Z,17.13
2023-03-27T02:26:37.349Z,17.70
2023-03-27T02:29:32.988Z,18.00
2023-03-27T02:32:14.278Z,16.90
2023-03-27T02:35:01.052Z,18.20
2023-03-27T02:38:17.668Z,17.63
2023-03-27T02:41:13.752Z,18.33
2023-03-27T02:44:06.361Z,18.38
2023-03-27T02:46:51.569Z,17.83
2023-03-27T02:49:30.150Z,18.85
2023-03-27T02:52:08.239Z,17.63
2023-03-27T02:54:43.524Z,18.20
2023-03-27T02:57:17.098Z,18.98
2023-03-27T03:00:29.387Z,18.90
2023-03-27T03:03:28.024Z,16.98
2023-03-27T03:06:07.510Z,17.63
2023-03-27T03:08:39.273Z,17.25
2023-03-27T03:11:13.590Z,15.88
2023-03-27T03:13:41.755Z,15.85
2023-03-27T03:16:10.325Z,15.05
2023-03-27T03:18:38.362Z,16.20
2023-03-27T03:21:06.477Z,16.15
2023-03-27T03:23:35.242Z,16.00
2023-03-27T03:26:03.492Z,17.55
2023-03-27T03:29:01.329Z,18.38
2023-03-27T03:31:43.689Z,18.27
2023-03-27T03:34:14.625Z,19.00
2023-03-27T03:36:45.098Z,19.92
2023-03-27T03:39:13.347Z,19.75
2023-03-27T03:41:42.766Z,21.20
2023-03-27T03:44:11.131Z,20.95
2023-03-27T03:46:40.798Z,22.77
2023-03-27T03:49:09.651Z,21.95
2023-03-27T03:51:37.540Z,22.65
2023-03-27T03:54:09.580Z,22.30
2023-03-27T03:56:41.812Z,22.70
2023-03-27T03:59:11.319Z,22.38
2023-03-27T04:01:57.728Z,23.00
2023-03-27T04:04:30.925Z,21.47
2023-03-27T04:07:12.034Z,21.35
2023-03-27T04:09:45.289Z,22.85
2023-03-27T04:12:24.683Z,21.58
2023-03-27T04:14:58.235Z,23.20
2023-03-27T04:17:45.536Z,21.50
2023-03-27T04:20:13.577Z,22.08
2023-03-27T04:22:46.696Z,24.00
2023-03-27T04:25:18.289Z,23.23
2023-03-27T04:27:46.662Z,24.05
2023-03-27T04:30:37.295Z,24.35
2023-03-27T04:33:06.477Z,24.13
2023-03-27T04:36:06.129Z,24.30
2023-03-27T04:38:55.748Z,24.75
2023-03-27T04:41:24.070Z,25.38
2023-03-27T04:43:51.929Z,22.92
2023-03-27T04:46:19.731Z,22.40
2023-03-27T04:48:53.306Z,24.30
2023-03-27T04:51:42.342Z,23.92
2023-03-27T04:54:12.044Z,25.38
2023-03-27T04:56:45.862Z,23.65
2023-03-27T04:59:15.780Z,23.88
2023-03-27T05:01:47.075Z,25.17
2023-03-27T05:04:26.880Z,25.98
2023-03-27T05:07:12.444Z,26.13
2023-03-27T05:09:40.478Z,24.17
2023-03-27T05:12:10.941Z,24.88
2023-03-27T05:15:04.403Z,23.42
2023-03-27T05:17:42.081Z,25.58
2023-03-27T05:20:17.234Z,24.45
2023-03-27T05:22:45.859Z,24.88
2023-03-27T05:25:33.276Z,23.80
2023-03-27T05:28:04.127Z,25.58
2023-03-27T05:30:35.563Z,24.00
2023-03-27T05:33:23.419Z,23.48
2023-03-27T05:35:53.378Z,24.35
2023-03-27T05:38:23.004Z,23.63
2023-03-27T05:41:16.005Z,23.42
2023-03-27T05:43:48.546Z,23.42
2023-03-27T05:46:21.153Z,22.02
2023-03-27T05:48:59.529Z,21.45
2023-03-27T05:51:27.791Z,22.13
2023-03-27T05:53:55.765Z,23.00
2023-03-27T05:56:56.296Z,23.33
2023-03-27T05:59:24.310Z,21.50
2023-03-27T06:01:58.737Z,22.60
2023-03-27T06:04:35.266Z,23.77
2023-03-27T06:07:06.839Z,23.88
2023-03-27T06:09:39.374Z,25.25
2023-03-27T06:12:27.269Z,28.08
2023-03-27T06:15:05.997Z,25.10
2023-03-27T06:17:41.592Z,27.35
2023-03-27T06:20:12.733Z,25.85
2023-03-27T06:22:55.793Z,24.40
2023-03-27T06:25:32.406Z,23.08
2023-03-27T06:28:02.634Z,23.30
2023-03-27T06:30:33.038Z,22.00
2023-03-27T06:33:41.461Z,23.23
2023-03-27T06:36:20.942Z,24.83
2023-03-27T06:38:52.144Z,23.00
2023-03-27T06:41:20.434Z,22.13
2023-03-27T06:44:06.830Z,24.77
2023-03-27T06:46:55.101Z,19.95
2023-03-27T06:49:48.946Z,23.35
2023-03-27T06:52:22.882Z,21.48
2023-03-27T06:54:51.161Z,18.92
2023-03-27T06:57:19.097Z,21.30
2023-03-27T06:59:53.638Z,20.77
2023-03-27T07:02:25.782Z,19.42
2023-03-27T07:05:04.308Z,19.17
2023-03-27T07:07:41.850Z,19.15
2023-03-27T07:10:12.446Z,17.80
2023-03-27T07:12:45.855Z,17.35
2023-03-27T07:15:18.031Z,16.92
2023-03-27T07:17:54.245Z,16.00
2023-03-27T07:20:22.954Z,15.27
2023-03-27T07:22:51.484Z,15.20
2023-03-27T07:25:38.462Z,15.55
2023-03-27T07:28:16.930Z,15.80
2023-03-27T07:30:45.067Z,15.95
2023-03-27T07:33:13.382Z,16.67
2023-03-27T07:35:43.784Z,15.68
2023-03-27T07:38:34.548Z,15.52
2023-03-27T07:41:24.484Z,17.30
2023-03-27T07:44:11.393Z,16.02
2023-03-27T07:47:00.648Z,16.73
2023-03-27T07:49:39.356Z,16.40
2023-03-27T07:52:16.557Z,15.63
2023-03-27T07:54:54.499Z,15.80
2023-03-27T07:57:24.889Z,16.58
2023-03-27T07:59:53.005Z,14.13
2023-03-27T08:02:40.130Z,14.82
2023-03-27T08:05:10.126Z,14.85
2023-03-27T08:07:41.244Z,13.93
2023-03-27T08:10:10.833Z,10.60
2023-03-27T08:12:52.242Z,11.45
2023-03-27T08:15:20.982Z,12.18
2023-03-27T08:17:54.024Z,11.18
2023-03-27T08:20:25.361Z,10.98
2023-03-27T08:22:53.814Z,9.10
2023-03-27T08:25:43.151Z,8.57
2023-03-27T08:28:11.757Z,7.60
2023-03-27T08:30:42.007Z,6.15
2023-03-27T08:33:10.894Z,5.68
2023-03-27T08:35:38.916Z,5.05
2023-03-27T08:38:13.790Z,3.80
2023-03-27T08:41:30.951Z,3.13
2023-03-27T08:44:20.233Z,2.55
2023-03-27T08:47:00.393Z,2.90
2023-03-27T08:49:36.530Z,1.92
2023-03-27T08:52:34.507Z,2.03
2023-03-27T08:55:13.709Z,2.35
2023-03-27T08:57:51.523Z,2.50
2023-03-27T09:00:28.077Z,2.35
2023-03-27T09:03:19.763Z,2.20
2023-03-27T09:05:58.210Z,2.38
2023-03-27T09:08:32.310Z,2.08
2023-03-27T09:11:13.704Z,1.70
2023-03-27T09:13:52.751Z,1.80
2023-03-27T09:16:34.515Z,2.25
2023-03-27T09:19:31.227Z,1.90
2023-03-27T09:22:02.837Z,1.27
2023-03-27T09:25:02.682Z,1.55
2023-03-27T09:27:49.789Z,1.48
2023-03-27T09:30:53.344Z,1.33
2023-03-27T09:33:29.745Z,1.70
2023-03-27T09:35:59.317Z,1.65
2023-03-27T09:38:45.060Z,1.33
2023-03-27T09:41:30.736Z,1.67
2023-03-27T09:44:06.675Z,1.92
2023-03-27T09:46:44.222Z,1.90
2023-03-27T09:51:51.449Z,1.92
2023-03-27T09:54:54.041Z,1.90
2023-03-27T09:57:38.844Z,1.95
2023-03-27T10:00:31.240Z,1.60
2023-03-27T10:03:14.090Z,1.48
2023-03-27T10:05:49.900Z,1.30
2023-03-27T10:08:27.246Z,1.42
2023-03-27T10:11:16.542Z,0.77
2023-03-27T10:14:00.631Z,0.70
2023-03-27T10:16:30.086Z,0.80
2023-03-27T10:19:06.847Z,0.80
2023-03-27T10:21:43.516Z,0.70
2023-03-27T10:24:26.414Z,0.70
2023-03-27T10:27:25.681Z,0.75
2023-03-27T10:30:34.790Z,0.63
2023-03-27T10:33:38.007Z,0.65
2023-03-27T10:36:40.761Z,0.93
2023-03-27T10:39:15.338Z,0.90
2023-03-27T10:42:08.302Z,1.05
2023-03-27T10:44:38.612Z,1.10
2023-03-27T10:47:20.860Z,1.30
2023-03-27T10:49:55.160Z,1.30
2023-03-27T10:53:05.508Z,1.95
2023-03-27T10:56:00.237Z,1.13
2023-03-27T10:58:34.138Z,1.10
2023-03-27T11:01:19.070Z,0.80
2023-03-27T11:03:58.283Z,0.70
2023-03-27T11:06:31.516Z,1.00
2023-03-27T11:09:24.522Z,0.80
2023-03-27T11:12:10.545Z,1.05
2023-03-27T11:15:31.743Z,1.15
2023-03-27T11:18:09.103Z,1.00
2023-03-27T11:21:02.793Z,0.50
2023-03-27T11:24:04.154Z,0.68
2023-03-27T11:26:59.585Z,0.60
2023-03-27T11:29:32.974Z,0.52
2023-03-27T11:32:11.513Z,0.70
2023-03-27T11:34:57.934Z,0.55
2023-03-27T11:38:00.846Z,0.50
2023-03-27T11:40:46.104Z,0.30
2023-03-27T11:43:16.477Z,0.30
2023-03-27T11:45:57.159Z,0.20
2023-03-27T11:48:49.647Z,0.35
2023-03-27T11:51:43.648Z,0.20
2023-03-27T11:54:30.307Z,0.20
2023-03-27T11:57:10.887Z,0.35
2023-03-27T12:00:27.718Z,0.28
2023-03-27T12:03:07.005Z,0.43
2023-03-27T12:06:14.877Z,0.30
2023-03-27T12:08:51.817Z,0.10
2023-03-27T12:11:22.125Z,0.17
2023-03-27T12:14:17.702Z,0.30
2023-03-27T12:17:10.227Z,0.35
2023-03-27T12:20:16.319Z,0.13
2023-03-27T12:23:04.197Z,0.17
2023-03-27T12:26:01.297Z,0.10
2023-03-27T12:29:23.309Z,0.25
2023-03-27T12:32:16.155Z,0.30
2023-03-27T12:35:00.932Z,0.43
2023-03-27T12:38:30.574Z,0.20
2023-03-27T12:41:19.417Z,0.35
2023-03-27T12:44:15.126Z,0.47
2023-03-27T12:47:21.902Z,0.30
2023-03-27T12:50:01.275Z,0.20
2023-03-27T12:52:38.652Z,0.45
2023-03-27T12:55:17.738Z,0.20
2023-03-27T12:57:58.286Z,0.30
2023-03-27T13:01:00.824Z,0.40
2023-03-27T13:03:53.554Z,0.20
2023-03-27T13:06:46.320Z,0.30
2023-03-27T13:09:28.629Z,0.10
2023-03-27T13:12:28.861Z,0.10
2023-03-27T13:15:18.143Z,0.00
2023-03-27T13:17:55.786Z,0.17
2023-03-27T13:20:57.144Z,0.20
2023-03-27T13:23:43.479Z,0.10
2023-03-27T13:26:26.148Z,0.10
2023-03-27T13:28:57.260Z,0.10
2023-03-27T13:31:47.642Z,0.10
2023-03-27T13:34:41.574Z,0.10
2023-03-27T13:37:15.060Z,0.10
2023-03-27T13:39:59.022Z,0.22
2023-03-27T13:42:41.716Z,0.30
2023-03-27T13:45:47.170Z,0.30
2023-03-27T13:48:59.334Z,0.20
2023-03-27T13:51:53.425Z,0.70
2023-03-27T13:54:36.946Z,0.20
2023-03-27T13:57:35.174Z,0.73
2023-03-27T14:00:24.418Z,0.40
2023-03-27T14:03:32.094Z,0.50
2023-03-27T14:06:36.408Z,0.60
2023-03-27T14:09:33.566Z,0.43
2023-03-27T14:12:32.190Z,0.30
2023-03-27T14:15:30.653Z,0.50
2023-03-27T14:18:56.265Z,0.30
2023-03-27T14:21:38.430Z,0.28
2023-03-27T14:24:24.985Z,0.20
2023-03-27T14:27:01.558Z,0.20
2023-03-27T14:29:29.827Z,0.20
2023-03-27T14:32:14.075Z,0.30
2023-03-27T14:35:05.268Z,0.10
2023-03-27T14:37:39.130Z,0.20
2023-03-27T14:40:42.802Z,0.30
2023-03-27T14:43:17.158Z,0.20
2023-03-27T14:45:47.120Z,0.17
2023-03-27T14:48:27.245Z,0.30
2023-03-27T14:51:02.224Z,0.22
2023-03-27T14:53:44.399Z,0.38
2023-03-27T14:56:28.368Z,0.30
2023-03-27T14:59:11.385Z,0.10
2023-03-27T15:01:59.350Z,0.10
2023-03-27T15:04:30.322Z,0.20
2023-03-27T15:07:15.656Z,0.20
2023-03-27T15:10:06.160Z,0.30
2023-03-27T15:12:54.190Z,0.30
2023-03-27T15:15:24.026Z,0.20
2023-03-27T15:17:55.377Z,0.00
2023-03-27T15:20:28.108Z,0.17
2023-03-27T15:23:36.949Z,0.68
2023-03-27T15:26:12.547Z,0.45
2023-03-27T15:28:50.128Z,0.40
2023-03-27T15:31:19.031Z,0.30
2023-03-27T15:34:02.579Z,0.40
2023-03-27T15:36:34.857Z,0.50
2023-03-27T15:39:05.160Z,0.70
2023-03-27T15:41:33.054Z,0.80
2023-03-27T15:44:18.391Z,0.85
2023-03-27T15:46:48.774Z,0.50
2023-03-27T15:49:21.626Z,0.30
2023-03-27T15:51:49.859Z,0.20
2023-03-27T15:54:36.367Z,0.20
2023-03-27T15:57:11.795Z,0.15
2023-03-27T15:59:52.531Z,0.20
2023-03-27T16:02:25.640Z,0.10
2023-03-27T16:04:57.366Z,0.20
2023-03-27T16:07:42.511Z,0.15
2023-03-27T16:10:11.469Z,0.17
2023-03-27T16:12:52.075Z,0.10
2023-03-27T16:15:34.756Z,0.20
2023-03-27T16:18:17.375Z,0.50
2023-03-27T16:20:45.389Z,0.35
2023-03-27T16:23:13.328Z,0.40
2023-03-27T16:25:41.647Z,0.40
2023-03-27T16:28:11.446Z,0.30
2023-03-27T16:30:41.600Z,0.20
2023-03-27T16:33:18.416Z,0.15
2023-03-27T16:35:47.714Z,0.20
2023-03-27T16:38:16.724Z,0.47
2023-03-27T16:40:45.725Z,0.10
2023-03-27T16:43:13.648Z,0.10
2023-03-27T16:45:41.896Z,0.20
2023-03-27T16:48:10.875Z,0.20
2023-03-27T16:50:39.120Z,0.20
2023-03-27T16:53:07.096Z,0.30
2023-03-27T16:55:35.083Z,0.10
2023-03-27T16:58:03.922Z,0.20
2023-03-27T17:00:32.128Z,0.40
2023-03-27T17:03:00.205Z,0.30
2023-03-27T17:05:34.095Z,0.35
2023-03-27T17:08:02.800Z,0.20
2023-03-27T17:10:31.667Z,0.30
2023-03-27T17:12:59.631Z,0.82
2023-03-27T17:15:27.683Z,4.32
2023-03-27T17:17:55.619Z,5.03
2023-03-27T17:20:23.445Z,12.70
2023-03-27T17:22:51.366Z,0.77
2023-03-27T17:25:19.197Z,0.90
2023-03-27T17:27:47.096Z,0.50
2023-03-27T17:30:21.453Z,0.38
2023-03-27T17:32:55.330Z,0.50
2023-03-27T17:35:23.732Z,2.25
2023-03-27T17:37:51.840Z,2.13
2023-03-27T17:40:19.669Z,3.13
2023-03-27T17:42:47.532Z,2.13
2023-03-27T17:45:19.825Z,1.38
2023-03-27T17:47:47.691Z,0.50
2023-03-27T17:50:15.789Z,0.50
2023-03-27T17:52:43.741Z,0.70
2023-03-27T17:55:11.770Z,0.70
2023-03-27T17:57:39.943Z,1.42
2023-03-27T18:00:09.802Z,0.60
2023-03-27T18:02:40.836Z,0.60
2023-03-27T18:05:09.240Z,0.70
2023-03-27T18:07:37.076Z,0.60
2023-03-27T18:10:05.719Z,0.32
2023-03-27T18:12:34.169Z,0.63
2023-03-27T18:15:02.288Z,0.60
2023-03-27T18:17:30.243Z,0.63
2023-03-27T18:19:58.158Z,0.95
2023-03-27T18:22:26.010Z,0.70
2023-03-27T18:24:53.888Z,0.60
2023-03-27T18:27:21.709Z,0.60
2023-03-27T18:29:49.438Z,0.68
2023-03-27T18:32:17.293Z,0.40
2023-03-27T18:34:45.096Z,0.40
2023-03-27T18:37:13.065Z,0.57
2023-03-27T18:39:40.933Z,0.70
2023-03-27T18:42:08.939Z,0.88
2023-03-27T18:44:39.322Z,0.40
2023-03-27T18:47:08.897Z,0.98
2023-03-27T18:49:37.119Z,0.70
2023-03-27T18:52:05.390Z,0.70
2023-03-27T18:54:33.387Z,0.77
2023-03-27T18:57:01.516Z,0.50
2023-03-27T18:59:29.516Z,0.50
2023-03-27T19:01:57.729Z,0.55
2023-03-27T19:04:25.736Z,0.70
2023-03-27T19:06:53.591Z,1.30
2023-03-27T19:09:25.514Z,0.60
2023-03-27T19:12:02.531Z,0.55
2023-03-27T19:14:49.117Z,0.80
2023-03-27T19:17:35.504Z,0.90
2023-03-27T19:20:03.689Z,0.68
2023-03-27T19:22:36.046Z,1.00
2023-03-27T19:25:21.258Z,0.60
2023-03-27T19:27:49.125Z,0.70
2023-03-27T19:30:18.497Z,0.52
2023-03-27T19:32:46.578Z,0.68
2023-03-27T19:35:14.649Z,0.60
2023-03-27T19:37:42.925Z,0.70
2023-03-27T19:40:11.526Z,0.57
2023-03-27T19:42:39.437Z,0.45
2023-03-27T19:45:07.885Z,0.60
2023-03-27T19:47:35.824Z,0.40
2023-03-27T19:50:07.036Z,0.47
2023-03-27T19:52:54.487Z,0.60
2023-03-27T19:55:33.750Z,0.60
2023-03-27T19:58:01.702Z,0.60
2023-03-27T20:00:31.498Z,0.65
2023-03-27T20:02:59.951Z,0.60
2023-03-27T20:05:29.744Z,0.70
2023-03-27T20:07:57.666Z,0.60
2023-03-27T20:10:27.576Z,1.52
2023-03-27T20:12:55.549Z,0.90
2023-03-27T20:15:23.606Z,0.75
2023-03-27T20:17:51.568Z,0.88
2023-03-27T20:20:20.099Z,0.73
2023-03-27T20:22:57.057Z,0.70
2023-03-27T20:25:28.247Z,0.60
2023-03-27T20:27:56.659Z,0.80
2023-03-27T20:30:25.268Z,0.80
2023-03-27T20:32:53.905Z,0.70
2023-03-27T20:35:24.808Z,0.73
2023-03-27T20:37:56.592Z,0.60
2023-03-27T20:40:26.360Z,0.77
2023-03-27T20:43:13.044Z,0.70
2023-03-27T20:45:45.940Z,0.90
2023-03-27T20:48:15.268Z,0.65
2023-03-27T20:50:49.229Z,0.55
2023-03-27T20:53:31.680Z,0.60
2023-03-27T20:56:03.812Z,0.70
2023-03-27T20:58:38.650Z,0.55
2023-03-27T21:01:09.348Z,0.68
2023-03-27T21:03:42.066Z,0.70
2023-03-27T21:06:14.338Z,0.63
2023-03-27T21:08:42.450Z,0.40
2023-03-27T21:11:10.895Z,0.68
2023-03-27T21:13:38.846Z,0.57
2023-03-27T21:16:08.767Z,0.70
2023-03-27T21:18:36.712Z,0.50
2023-03-27T21:21:05.186Z,0.60
2023-03-27T21:23:34.753Z,0.82
2023-03-27T21:26:02.732Z,0.60
2023-03-27T21:28:30.711Z,0.63
2023-03-27T21:30:59.907Z,0.70
2023-03-27T21:33:27.814Z,0.60
2023-03-27T21:35:57.242Z,0.52
2023-03-27T21:38:25.705Z,0.70
2023-03-27T21:40:53.616Z,0.63
2023-03-27T21:43:21.630Z,0.70
2023-03-27T21:45:50.493Z,0.70
2023-03-27T21:48:18.416Z,0.57
2023-03-27T21:50:46.788Z,0.60
2023-03-27T21:53:15.020Z,0.68
2023-03-27T21:55:43.044Z,0.88
2023-03-27T21:58:11.298Z,0.70
2023-03-27T22:00:39.170Z,0.80
2023-03-27T22:03:07.186Z,0.57
2023-03-27T22:05:39.119Z,0.70
2023-03-27T22:08:07.181Z,0.70
2023-03-27T22:10:35.675Z,0.60
2023-03-27T22:13:04.117Z,0.70
2023-03-27T22:15:32.719Z,0.57
2023-03-27T22:18:01.488Z,0.80
2023-03-27T22:20:29.489Z,0.60
2023-03-27T22:22:57.265Z,0.73
2023-03-27T22:25:25.185Z,0.73
2023-03-27T22:27:53.225Z,0.63
2023-03-27T22:30:21.225Z,1.00
2023-03-27T22:32:49.134Z,0.70
2023-03-27T22:35:17.220Z,0.93
2023-03-27T22:37:45.103Z,0.70
2023-03-27T22:40:13.193Z,0.75
2023-03-27T22:42:41.413Z,0.60
2023-03-27T22:45:09.717Z,0.50
2023-03-27T22:47:37.620Z,1.27
2023-03-27T22:50:06.637Z,0.50
2023-03-27T22:52:34.867Z,0.50
2023-03-27T22:55:02.791Z,0.60
2023-03-27T22:57:30.654Z,0.80
2023-03-27T22:59:58.546Z,0.98
2023-03-27T23:02:26.650Z,0.60
2023-03-27T23:04:55.141Z,0.75
2023-03-27T23:07:23.462Z,0.70
2023-03-27T23:09:51.415Z,0.65
2023-03-27T23:12:19.376Z,0.80
2023-03-27T23:14:47.213Z,0.73
2023-03-27T23:17:15.139Z,0.50
2023-03-27T23:19:43.077Z,0.70
2023-03-27T23:22:11.005Z,0.50
2023-03-27T23:24:38.895Z,1.02
2023-03-27T23:27:08.856Z,0.60
2023-03-27T23:29:36.724Z,0.70
2023-03-27T23:32:04.753Z,0.55
2023-03-27T23:34:32.599Z,0.73
2023-03-27T23:37:00.482Z,0.70
2023-03-27T23:39:28.429Z,1.05
2023-03-27T23:41:56.314Z,0.90
2023-03-27T23:44:24.154Z,0.95
2023-03-27T23:46:51.988Z,1.58
2023-03-27T23:49:19.856Z,1.00
2023-03-27T23:51:47.819Z,0.80
2023-03-27T23:54:15.707Z,0.82
2023-03-27T23:56:43.646Z,0.98
2023-03-27T23:59:11.749Z,0.90
